createdAt,value
2023-08-03T00:00:55.349Z,1.48
2023-08-03T00:06:57.241Z,1.52
2023-08-03T00:12:59.104Z,1.83
2023-08-03T00:19:00.962Z,1.73
2023-08-03T00:25:04.364Z,1.60
2023-08-03T00:31:06.330Z,1.90
2023-08-03T00:37:08.418Z,2.10
2023-08-03T00:43:10.842Z,1.90
2023-08-03T00:49:12.893Z,1.92
2023-08-03T00:55:14.937Z,1.90
2023-08-03T01:01:16.938Z,1.80
2023-08-03T01:07:18.951Z,1.70
2023-08-03T01:13:22.167Z,1.60
2023-08-03T01:19:24.205Z,1.77
2023-08-03T01:25:26.729Z,1.77
2023-08-03T01:31:28.877Z,2.03
2023-08-03T01:37:31.916Z,2.00
2023-08-03T01:43:33.894Z,1.50
2023-08-03T01:49:36.321Z,1.70
2023-08-03T01:55:38.204Z,1.23
2023-08-03T02:09:10.025Z,2.05
2023-08-03T02:15:14.049Z,1.75
2023-08-03T02:21:16.096Z,1.60
2023-08-03T02:27:18.100Z,1.58
2023-08-03T02:33:20.064Z,1.73
2023-08-03T02:39:23.491Z,1.30
2023-08-03T02:45:26.036Z,1.60
2023-08-03T02:51:29.653Z,1.73
2023-08-03T02:57:32.131Z,1.63
2023-08-03T03:03:34.401Z,1.52
2023-08-03T03:09:37.034Z,1.40
2023-08-03T03:15:41.393Z,1.13
2023-08-03T03:21:44.573Z,1.45
2023-08-03T03:27:47.416Z,1.20
2023-08-03T03:33:49.707Z,1.23
2023-08-03T03:39:51.921Z,1.27
2023-08-03T03:45:59.952Z,1.27
2023-08-03T03:52:03.960Z,1.30
2023-08-03T03:58:08.961Z,1.20
2023-08-03T04:04:12.214Z,1.30
2023-08-03T04:10:14.238Z,1.10
2023-08-03T04:16:16.366Z,0.90
2023-08-03T04:22:18.471Z,1.85
2023-08-03T04:28:20.368Z,1.02
2023-08-03T04:34:22.616Z,1.30
2023-08-03T04:40:28.109Z,1.00
2023-08-03T04:46:30.083Z,1.15
2023-08-03T04:52:32.499Z,1.30
2023-08-03T04:58:35.972Z,1.05
2023-08-03T05:04:38.800Z,1.20
2023-08-03T05:10:43.002Z,0.80
2023-08-03T05:16:45.741Z,1.05
2023-08-03T05:22:47.648Z,1.00
2023-08-03T05:28:49.716Z,1.08
2023-08-03T05:34:51.634Z,0.70
2023-08-03T05:40:53.511Z,0.80
2023-08-03T05:46:55.444Z,0.70
2023-08-03T05:52:57.911Z,0.95
2023-08-03T05:59:02.808Z,0.63
2023-08-03T06:05:07.609Z,0.70
2023-08-03T06:11:10.458Z,0.65
2023-08-03T06:17:12.672Z,0.60
2023-08-03T06:23:18.996Z,0.68
2023-08-03T06:29:21.017Z,0.47
2023-08-03T06:35:38.711Z,0.50
2023-08-03T06:41:41.089Z,0.70
2023-08-03T06:47:50.493Z,0.43
2023-08-03T06:53:52.573Z,0.50
2023-08-03T06:59:56.340Z,0.40
2023-08-03T07:05:59.018Z,0.30
2023-08-03T07:12:00.987Z,0.28
2023-08-03T07:18:05.361Z,0.32
2023-08-03T07:24:07.394Z,0.60
2023-08-03T07:30:09.698Z,0.57
2023-08-03T07:36:19.180Z,0.47
2023-08-03T07:42:21.064Z,0.50
2023-08-03T07:48:22.917Z,0.40
2023-08-03T07:54:25.584Z,0.60
2023-08-03T08:00:27.627Z,0.52
2023-08-03T08:06:30.135Z,0.60
2023-08-03T08:12:32.057Z,0.57
2023-08-03T08:18:35.876Z,0.68
2023-08-03T08:24:38.338Z,0.60
2023-08-03T08:30:40.363Z,0.47
2023-08-03T08:36:42.354Z,0.88
2023-08-03T08:42:44.447Z,0.50
2023-08-03T09:01:05.350Z,0.30
2023-08-03T09:07:07.529Z,0.40
2023-08-03T09:13:09.614Z,0.40
2023-08-03T09:19:11.559Z,0.68
2023-08-03T09:25:16.649Z,0.60
2023-08-03T09:43:48.886Z,0.63
2023-08-03T09:49:51.510Z,0.65
2023-08-03T09:56:01.907Z,0.60
2023-08-03T10:02:09.097Z,0.50
2023-08-03T10:08:40.593Z,0.60
2023-08-03T10:14:44.525Z,0.55
2023-08-03T10:20:47.152Z,0.80
2023-08-03T10:26:59.414Z,0.50
2023-08-03T10:33:03.033Z,0.70
2023-08-03T10:39:15.292Z,0.82
2023-08-03T10:45:23.528Z,0.73
2023-08-03T10:51:25.757Z,0.60
2023-08-03T10:57:30.191Z,0.60
2023-08-03T11:03:38.920Z,0.80
2023-08-03T11:09:41.054Z,0.70
2023-08-03T11:15:43.113Z,0.63
2023-08-03T11:21:45.733Z,0.60
2023-08-03T11:27:47.724Z,0.82
2023-08-03T11:33:53.993Z,0.60
2023-08-03T11:39:55.863Z,0.70
2023-08-03T11:45:57.836Z,0.75
2023-08-03T11:52:02.727Z,0.50
2023-08-03T11:58:12.417Z,0.70
2023-08-03T12:04:16.160Z,0.60
2023-08-03T12:10:18.270Z,0.50
2023-08-03T12:16:20.233Z,0.60
2023-08-03T12:22:22.153Z,0.55
2023-08-03T12:28:27.545Z,0.50
2023-08-03T12:34:29.826Z,0.50
2023-08-03T12:40:31.985Z,0.40
2023-08-03T12:46:34.000Z,0.50
2023-08-03T12:52:36.016Z,0.50
2023-08-03T12:58:38.120Z,0.40
2023-08-03T13:04:40.017Z,0.40
2023-08-03T13:10:42.175Z,0.50
2023-08-03T13:16:44.544Z,0.40
2023-08-03T13:22:46.900Z,0.30
2023-08-03T13:28:51.721Z,0.20
2023-08-03T13:34:53.859Z,0.47
2023-08-03T13:40:56.773Z,0.30
2023-08-03T13:47:04.071Z,0.30
2023-08-03T13:53:06.432Z,0.38
2023-08-03T13:59:08.571Z,0.38
2023-08-03T14:05:10.878Z,0.30
2023-08-03T14:17:53.865Z,0.50
2023-08-03T14:23:40.467Z,0.40
2023-08-03T14:29:42.409Z,0.47
2023-08-03T14:35:44.463Z,0.70
2023-08-03T14:41:49.590Z,0.65
2023-08-03T15:00:02.107Z,0.60
2023-08-03T15:06:18.069Z,0.70
2023-08-03T15:12:20.610Z,0.80
2023-08-03T15:18:23.972Z,0.73
2023-08-03T15:24:27.952Z,0.77
2023-08-03T15:30:59.031Z,0.68
2023-08-03T15:36:53.409Z,0.80
2023-08-03T15:42:57.443Z,0.80
2023-08-03T15:49:04.392Z,0.77
2023-08-03T16:01:15.663Z,1.20
2023-08-03T16:07:17.635Z,0.90
2023-08-03T16:13:19.569Z,0.73
2023-08-03T16:19:23.697Z,0.70
2023-08-03T16:25:26.978Z,0.75
2023-08-03T16:37:39.715Z,0.50
2023-08-03T16:43:42.624Z,0.70
2023-08-03T16:49:44.824Z,0.60
2023-08-03T16:55:46.919Z,0.60
2023-08-03T17:01:48.884Z,0.60
2023-08-03T17:07:52.238Z,0.60
2023-08-03T17:13:54.145Z,0.60
2023-08-03T17:19:56.084Z,0.60
2023-08-03T17:26:00.597Z,0.80
2023-08-03T17:32:02.810Z,1.20
2023-08-03T17:38:04.684Z,0.88
2023-08-03T17:44:06.640Z,1.00
2023-08-03T17:50:09.348Z,0.85
2023-08-03T17:56:16.721Z,0.80
2023-08-03T18:02:19.915Z,1.02
2023-08-03T18:08:21.901Z,1.13
2023-08-03T18:14:23.860Z,1.10
2023-08-03T18:20:25.815Z,1.05
2023-08-03T18:26:27.924Z,1.05
2023-08-03T18:32:30.002Z,1.00
2023-08-03T18:38:36.717Z,1.40
2023-08-03T18:44:38.796Z,1.15
2023-08-03T18:50:40.859Z,1.30
2023-08-03T18:56:46.038Z,1.40
2023-08-03T19:02:48.154Z,1.63
2023-08-03T19:08:50.084Z,2.20
2023-08-03T19:14:51.923Z,2.17
2023-08-03T19:20:54.216Z,2.03
2023-08-03T19:26:56.065Z,2.10
2023-08-03T19:32:58.304Z,2.20
2023-08-03T19:39:00.161Z,2.15
2023-08-03T19:45:03.042Z,2.20
2023-08-03T19:57:09.899Z,1.80
2023-08-03T20:09:17.362Z,2.40
2023-08-03T20:15:19.320Z,2.10
2023-08-03T20:21:21.577Z,2.63
2023-08-03T20:27:28.271Z,2.60
2023-08-03T20:33:30.625Z,2.73
2023-08-03T20:39:35.806Z,2.42
2023-08-03T20:51:50.392Z,2.53
2023-08-03T20:57:52.240Z,2.47
2023-08-03T21:03:54.193Z,2.65
2023-08-03T21:16:12.144Z,2.35
2023-08-03T21:22:14.156Z,1.80
2023-08-03T21:28:16.091Z,2.38
2023-08-03T21:34:18.051Z,1.70
2023-08-03T21:40:19.943Z,1.92
2023-08-03T21:46:22.101Z,3.90
2023-08-03T21:52:24.448Z,1.40
2023-08-03T21:58:26.363Z,1.40
2023-08-03T22:04:28.233Z,1.73
2023-08-03T22:10:30.299Z,1.40
2023-08-03T22:16:32.274Z,1.90
2023-08-03T22:22:34.196Z,2.00
2023-08-03T22:28:36.047Z,2.05
2023-08-03T22:34:37.870Z,2.20
2023-08-03T22:40:41.641Z,2.20
2023-08-03T22:46:43.526Z,2.00
2023-08-03T22:52:45.431Z,2.15
2023-08-03T22:58:47.385Z,2.30
2023-08-03T23:04:50.391Z,1.98
2023-08-03T23:10:52.296Z,2.30
2023-08-03T23:16:54.134Z,2.03
2023-08-03T23:22:56.321Z,2.40
2023-08-03T23:28:58.284Z,1.70
2023-08-03T23:35:00.594Z,1.88
2023-08-03T23:41:02.548Z,2.33
2023-08-03T23:47:04.647Z,2.72
2023-08-03T23:53:06.672Z,2.58
2023-08-03T23:59:08.619Z,2.50
